Avoca, Arkansas
Current Conditions -  °F | °C
As of 8:57 PM on Sunday 21 Dec 2014 (Local Time) from KROG Reporting Station
Overcast Overcast  
Wind Chill: 38°   Ceiling: 2100
Heat Index: 43°   Visibility: 10mi
Dew Point: 37°   Wind: 8mph
Humidity: 80%   Direction: 120°ESE
Pressure: 29.83"   Gusts: NA
Location:  36.4°N, 94.07°W
Report Text: KROG 220257Z AUTO 12007KT 10SM OVC021 06/03 A2983 RMK AO2 SLP106 T00610028 58013
Loading
Personal Weather Stations






























Interactive Weather Map New forecast layout! Learn more

10-Day Weather Forecast

Advertisements
Track Severe Weather on mobile